Terminal Aerodrome Forecast
Issued by NWS Dodge City, KS

Home | Current Version | Previous Version | Text Only | Print | Product List | Glossary On
Versions: 1 2 3 4 5 6 7 8 9 10 11 12 13 14 15 16 17 18 19
000
FTUS43 KDDC 272334
TAFDDC
TAF
KDDC 272334Z 2800/2824 15011KT P6SM SCT200
     FM280300 VRB15KT P6SM VCTS BKN060CB
     FM280600 VRB06KT P6SM SCT200
     FM281600 17015G22KT P6SM SCT060=

USA.gov is the U.S. government's official web portal to all federal, state and local government web resources and services.